DLH86NH EDDS-EDDF
Flight info
| Callsign | DLH86NH |
|---|---|
| Flight time | 0h 35m |
| Altitude | 22000 |
| Route | ETASA4B/25 ETASA T163 SPESA SPESA4B |
| Aircraft | A320/M-SDE3FGHIRWY/LB1 |
Departure
| Time | 2026-05-07 18:45 |
|---|---|
| Airport | Stuttgart Airport (EDDS) |
Arrival
| Time | 2026-05-07 19:20 |
|---|---|
| Airport | Frankfurt Main Airport (EDDF) |
| Time | Latitude | Longitude | Altitude | Speed | Heading |
|---|---|---|---|---|---|
| 2026-05-07 18:07 | 48.68886 | 9.19363 | 1286 ft | 0 kts | 343° |
| 2026-05-07 18:29 | 48.68869 | 9.19371 | 1290 ft | 4 kts | 343° |
| 2026-05-07 18:29 | 48.68841 | 9.19384 | 1288 ft | 4 kts | 343° |
| 2026-05-07 18:29 | 48.68817 | 9.19378 | 1290 ft | 4 kts | 72° |
| 2026-05-07 18:29 | 48.68812 | 9.19357 | 1291 ft | 0 kts | 73° |
| 2026-05-07 18:34 | 48.68817 | 9.19379 | 1290 ft | 6 kts | 73° |
| 2026-05-07 18:34 | 48.68838 | 9.19487 | 1288 ft | 15 kts | 73° |
| 2026-05-07 18:34 | 48.68873 | 9.19668 | 1285 ft | 18 kts | 73° |
| 2026-05-07 18:35 | 48.68892 | 9.19831 | 1286 ft | 14 kts | 112° |
| 2026-05-07 18:35 | 48.68821 | 9.19905 | 1287 ft | 12 kts | 123° |
| 2026-05-07 18:35 | 48.68844 | 9.20059 | 1289 ft | 19 kts | 72° |
| 2026-05-07 18:35 | 48.68889 | 9.20291 | 1287 ft | 26 kts | 74° |
| 2026-05-07 18:36 | 48.68941 | 9.20558 | 1287 ft | 27 kts | 73° |
| 2026-05-07 18:36 | 48.68993 | 9.20835 | 1291 ft | 28 kts | 73° |
| 2026-05-07 18:36 | 48.69049 | 9.21117 | 1288 ft | 28 kts | 74° |
| 2026-05-07 18:36 | 48.69101 | 9.21405 | 1287 ft | 29 kts | 74° |
| 2026-05-07 18:37 | 48.69156 | 9.21698 | 1287 ft | 29 kts | 75° |
| 2026-05-07 18:37 | 48.69211 | 9.21989 | 1289 ft | 29 kts | 75° |
| 2026-05-07 18:37 | 48.69268 | 9.22291 | 1288 ft | 32 kts | 73° |
| 2026-05-07 18:37 | 48.69339 | 9.22650 | 1288 ft | 37 kts | 76° |
| 2026-05-07 18:38 | 48.69409 | 9.23021 | 1290 ft | 36 kts | 73° |
| 2026-05-07 18:38 | 48.69476 | 9.23379 | 1286 ft | 35 kts | 73° |
| 2026-05-07 18:38 | 48.69519 | 9.23665 | 1285 ft | 21 kts | 108° |
| 2026-05-07 18:38 | 48.69427 | 9.23744 | 1288 ft | 15 kts | 191° |
| 2026-05-07 18:39 | 48.69375 | 9.23685 | 1288 ft | 0 kts | 224° |
| 2026-05-07 18:43 | 48.69353 | 9.23653 | 1285 ft | 7 kts | 225° |
| 2026-05-07 18:43 | 48.69301 | 9.23582 | 1289 ft | 11 kts | 213° |
| 2026-05-07 18:43 | 48.69241 | 9.23534 | 1288 ft | 8 kts | 235° |
| 2026-05-07 18:44 | 48.69236 | 9.23510 | 1287 ft | 0 kts | 254° |
| 2026-05-07 18:44 | 48.69232 | 9.23492 | 1286 ft | 11 kts | 254° |
| 2026-05-07 18:45 | 48.69133 | 9.22964 | 1290 ft | 94 kts | 250° |
| 2026-05-07 18:45 | 48.68883 | 9.21639 | 1302 ft | 164 kts | 258° |
| 2026-05-07 18:45 | 48.68577 | 9.19932 | 2065 ft | 168 kts | 256° |
| 2026-05-07 18:45 | 48.68253 | 9.18226 | 3052 ft | 168 kts | 256° |
| 2026-05-07 18:46 | 48.67921 | 9.16531 | 3647 ft | 173 kts | 255° |
| 2026-05-07 18:46 | 48.67563 | 9.14717 | 4051 ft | 188 kts | 255° |
| 2026-05-07 18:46 | 48.67166 | 9.12724 | 4416 ft | 208 kts | 255° |
| 2026-05-07 18:46 | 48.67023 | 9.10481 | 4947 ft | 223 kts | 285° |
| 2026-05-07 18:47 | 48.67823 | 9.08445 | 5583 ft | 235 kts | 313° |
| 2026-05-07 18:47 | 48.69063 | 9.06760 | 6319 ft | 244 kts | 329° |
| 2026-05-07 18:47 | 48.70685 | 9.05773 | 6972 ft | 260 kts | 340° |
| 2026-05-07 18:47 | 48.72475 | 9.05007 | 7605 ft | 275 kts | 352° |
| 2026-05-07 18:48 | 48.74403 | 9.05179 | 8464 ft | 282 kts | 7° |
| 2026-05-07 18:48 | 48.76353 | 9.05675 | 9321 ft | 287 kts | 8° |
| 2026-05-07 18:48 | 48.78309 | 9.06186 | 10157 ft | 292 kts | 8° |
| 2026-05-07 18:48 | 48.80388 | 9.06732 | 10687 ft | 308 kts | 8° |
| 2026-05-07 18:49 | 48.82535 | 9.07294 | 11122 ft | 325 kts | 8° |
| 2026-05-07 18:49 | 48.84820 | 9.07892 | 11541 ft | 342 kts | 8° |
| 2026-05-07 18:49 | 48.87222 | 9.08518 | 11987 ft | 357 kts | 8° |
| 2026-05-07 18:49 | 48.89693 | 9.09163 | 12685 ft | 362 kts | 9° |
| 2026-05-07 18:50 | 48.92186 | 9.09815 | 13458 ft | 365 kts | 9° |
| 2026-05-07 18:50 | 48.94705 | 9.10474 | 14173 ft | 369 kts | 9° |
| 2026-05-07 18:50 | 48.97252 | 9.11141 | 14820 ft | 373 kts | 8° |
| 2026-05-07 18:50 | 48.99823 | 9.11816 | 15460 ft | 377 kts | 8° |
| 2026-05-07 18:51 | 49.02424 | 9.12497 | 15918 ft | 380 kts | 8° |
| 2026-05-07 18:51 | 49.05034 | 9.13181 | 16044 ft | 381 kts | 8° |
| 2026-05-07 18:51 | 49.07648 | 9.13863 | 16070 ft | 381 kts | 8° |
| 2026-05-07 18:51 | 49.10258 | 9.14540 | 16068 ft | 381 kts | 8° |
| 2026-05-07 18:52 | 49.12869 | 9.15218 | 16067 ft | 380 kts | 8° |
| 2026-05-07 18:52 | 49.15492 | 9.15905 | 16066 ft | 390 kts | 8° |
| 2026-05-07 18:52 | 49.18246 | 9.16628 | 16071 ft | 412 kts | 8° |
| 2026-05-07 18:52 | 49.21126 | 9.17387 | 16064 ft | 426 kts | 8° |
| 2026-05-07 18:53 | 49.24052 | 9.18165 | 16069 ft | 427 kts | 8° |
| 2026-05-07 18:53 | 49.26978 | 9.18945 | 16069 ft | 427 kts | 8° |
| 2026-05-07 18:53 | 49.29906 | 9.19723 | 16069 ft | 427 kts | 8° |
| 2026-05-07 18:53 | 49.32832 | 9.20497 | 16049 ft | 426 kts | 8° |
| 2026-05-07 18:54 | 49.35746 | 9.21268 | 15627 ft | 423 kts | 8° |
| 2026-05-07 18:54 | 49.38635 | 9.22039 | 15130 ft | 419 kts | 9° |
| 2026-05-07 18:54 | 49.41501 | 9.22806 | 14642 ft | 416 kts | 9° |
| 2026-05-07 18:54 | 49.44345 | 9.23568 | 14158 ft | 413 kts | 9° |
| 2026-05-07 18:55 | 49.47133 | 9.24312 | 13665 ft | 410 kts | 9° |
| 2026-05-07 18:55 | 49.49586 | 9.24966 | 13194 ft | 407 kts | 9° |
| 2026-05-07 18:55 | 49.52372 | 9.25710 | 12670 ft | 405 kts | 8° |
| 2026-05-07 18:55 | 49.55136 | 9.26449 | 12155 ft | 402 kts | 8° |
| 2026-05-07 18:56 | 49.57884 | 9.27184 | 11649 ft | 399 kts | 8° |
| 2026-05-07 18:56 | 49.60610 | 9.27914 | 11144 ft | 397 kts | 8° |
| 2026-05-07 18:56 | 49.63322 | 9.28641 | 10657 ft | 394 kts | 8° |
| 2026-05-07 18:56 | 49.66014 | 9.29372 | 10213 ft | 392 kts | 8° |
| 2026-05-07 18:57 | 49.68696 | 9.30102 | 10050 ft | 391 kts | 8° |
| 2026-05-07 18:57 | 49.71385 | 9.30831 | 10068 ft | 392 kts | 8° |
| 2026-05-07 18:57 | 49.74067 | 9.31555 | 10073 ft | 392 kts | 8° |
| 2026-05-07 18:57 | 49.76750 | 9.32268 | 10072 ft | 389 kts | 7° |
| 2026-05-07 18:58 | 49.79358 | 9.32395 | 10074 ft | 362 kts | 353° |
| 2026-05-07 18:58 | 49.81739 | 9.31652 | 10080 ft | 338 kts | 341° |
| 2026-05-07 18:58 | 49.83825 | 9.30253 | 10077 ft | 317 kts | 329° |
| 2026-05-07 18:58 | 49.85582 | 9.28365 | 10070 ft | 298 kts | 318° |
| 2026-05-07 18:59 | 49.86987 | 9.26150 | 10076 ft | 282 kts | 308° |
| 2026-05-07 18:59 | 49.88094 | 9.23641 | 10075 ft | 283 kts | 298° |
| 2026-05-07 18:59 | 49.88900 | 9.20863 | 10074 ft | 282 kts | 288° |
| 2026-05-07 18:59 | 49.89463 | 9.17950 | 10072 ft | 282 kts | 286° |
| 2026-05-07 19:00 | 49.90018 | 9.15031 | 10076 ft | 282 kts | 286° |
| 2026-05-07 19:00 | 49.90573 | 9.12109 | 10074 ft | 282 kts | 286° |
| 2026-05-07 19:00 | 49.91126 | 9.09190 | 10077 ft | 282 kts | 286° |
| 2026-05-07 19:00 | 49.91647 | 9.06434 | 10074 ft | 282 kts | 286° |
| 2026-05-07 19:01 | 49.92205 | 9.03474 | 10075 ft | 282 kts | 286° |
| 2026-05-07 19:01 | 49.92753 | 9.00586 | 10074 ft | 282 kts | 286° |
| 2026-05-07 19:01 | 49.93313 | 8.97663 | 10078 ft | 282 kts | 286° |
| 2026-05-07 19:01 | 49.93874 | 8.94739 | 10075 ft | 283 kts | 286° |
| 2026-05-07 19:02 | 49.94427 | 8.91860 | 10076 ft | 283 kts | 287° |
| 2026-05-07 19:02 | 49.94985 | 8.88934 | 10078 ft | 283 kts | 286° |
| 2026-05-07 19:02 | 49.95541 | 8.86006 | 10080 ft | 283 kts | 286° |
| 2026-05-07 19:02 | 49.96095 | 8.83073 | 10082 ft | 283 kts | 286° |
| 2026-05-07 19:03 | 49.96647 | 8.80147 | 10078 ft | 283 kts | 286° |
| 2026-05-07 19:03 | 49.97127 | 8.77183 | 10083 ft | 283 kts | 280° |
| 2026-05-07 19:03 | 49.97368 | 8.74152 | 10082 ft | 283 kts | 273° |
| 2026-05-07 19:03 | 49.97365 | 8.71091 | 10073 ft | 283 kts | 266° |
| 2026-05-07 19:04 | 49.97122 | 8.68062 | 10083 ft | 284 kts | 259° |
| 2026-05-07 19:04 | 49.96636 | 8.65089 | 10083 ft | 284 kts | 252° |
| 2026-05-07 19:04 | 49.95959 | 8.62212 | 10084 ft | 284 kts | 250° |
| 2026-05-07 19:04 | 49.95267 | 8.59337 | 10090 ft | 284 kts | 250° |
| 2026-05-07 19:05 | 49.94576 | 8.56460 | 10083 ft | 284 kts | 250° |
| 2026-05-07 19:05 | 49.93885 | 8.53587 | 9906 ft | 283 kts | 250° |
| 2026-05-07 19:05 | 49.93199 | 8.50745 | 9488 ft | 281 kts | 250° |
| 2026-05-07 19:05 | 49.92514 | 8.47913 | 9123 ft | 279 kts | 250° |
| 2026-05-07 19:06 | 49.91835 | 8.45104 | 8714 ft | 277 kts | 250° |
| 2026-05-07 19:06 | 49.90493 | 8.39533 | 7913 ft | 274 kts | 250° |
| 2026-05-07 19:06 | 49.89825 | 8.36780 | 7514 ft | 272 kts | 250° |
| 2026-05-07 19:07 | 49.89158 | 8.34042 | 7128 ft | 270 kts | 250° |
| 2026-05-07 19:07 | 49.88498 | 8.31325 | 6745 ft | 269 kts | 250° |
| 2026-05-07 19:07 | 49.87843 | 8.28627 | 6358 ft | 267 kts | 250° |
| 2026-05-07 19:07 | 49.87191 | 8.25940 | 5914 ft | 265 kts | 250° |
| 2026-05-07 19:08 | 49.86550 | 8.23295 | 5474 ft | 265 kts | 250° |
| 2026-05-07 19:08 | 49.85901 | 8.20618 | 5083 ft | 264 kts | 250° |
| 2026-05-07 19:08 | 49.85250 | 8.17940 | 5012 ft | 267 kts | 250° |
| 2026-05-07 19:08 | 49.84594 | 8.15250 | 5021 ft | 267 kts | 250° |
| 2026-05-07 19:09 | 49.83936 | 8.12556 | 5021 ft | 267 kts | 250° |
| 2026-05-07 19:09 | 49.83277 | 8.09871 | 5030 ft | 267 kts | 250° |
| 2026-05-07 19:09 | 49.82618 | 8.07182 | 5023 ft | 267 kts | 250° |
| 2026-05-07 19:09 | 49.81963 | 8.04498 | 5021 ft | 267 kts | 250° |
| 2026-05-07 19:10 | 49.81310 | 8.01822 | 5021 ft | 259 kts | 250° |
| 2026-05-07 19:10 | 49.80696 | 7.99317 | 5020 ft | 240 kts | 250° |
| 2026-05-07 19:10 | 49.80215 | 7.96911 | 5019 ft | 234 kts | 267° |
| 2026-05-07 19:10 | 49.80492 | 7.94479 | 5019 ft | 232 kts | 299° |
| 2026-05-07 19:11 | 49.81567 | 7.92675 | 5013 ft | 230 kts | 331° |
| 2026-05-07 19:11 | 49.83086 | 7.92040 | 4860 ft | 227 kts | 2° |
| 2026-05-07 19:11 | 49.84576 | 7.92765 | 4512 ft | 227 kts | 34° |
| 2026-05-07 19:11 | 49.85784 | 7.94334 | 4195 ft | 226 kts | 43° |
| 2026-05-07 19:12 | 49.86826 | 7.96074 | 4073 ft | 216 kts | 57° |
| 2026-05-07 19:12 | 49.87278 | 7.97423 | 4012 ft | 210 kts | 63° |
| 2026-05-07 19:12 | 49.87910 | 7.99457 | 3992 ft | 210 kts | 63° |
| 2026-05-07 19:12 | 49.88544 | 8.01489 | 4000 ft | 210 kts | 63° |
| 2026-05-07 19:13 | 49.89178 | 8.03524 | 3995 ft | 210 kts | 63° |
| 2026-05-07 19:13 | 49.89813 | 8.05563 | 4002 ft | 210 kts | 63° |
| 2026-05-07 19:13 | 49.90449 | 8.07601 | 4000 ft | 209 kts | 62° |
| 2026-05-07 19:13 | 49.91276 | 8.09438 | 3998 ft | 208 kts | 46° |
| 2026-05-07 19:14 | 49.92270 | 8.11075 | 3998 ft | 208 kts | 49° |
| 2026-05-07 19:14 | 49.92978 | 8.13038 | 4004 ft | 210 kts | 66° |
| 2026-05-07 19:14 | 49.93505 | 8.15152 | 4002 ft | 210 kts | 68° |
| 2026-05-07 19:14 | 49.94018 | 8.17279 | 3992 ft | 210 kts | 68° |
| 2026-05-07 19:15 | 49.94524 | 8.19362 | 3996 ft | 206 kts | 68° |
| 2026-05-07 19:15 | 49.95011 | 8.21366 | 4023 ft | 189 kts | 68° |
| 2026-05-07 19:15 | 49.95457 | 8.23197 | 4018 ft | 178 kts | 68° |
| 2026-05-07 19:15 | 49.95896 | 8.25001 | 3992 ft | 178 kts | 68° |
| 2026-05-07 19:16 | 49.96333 | 8.26801 | 3893 ft | 178 kts | 68° |
| 2026-05-07 19:16 | 49.96768 | 8.28595 | 3703 ft | 177 kts | 68° |
| 2026-05-07 19:16 | 49.97201 | 8.30380 | 3483 ft | 176 kts | 68° |
| 2026-05-07 19:16 | 49.97628 | 8.32144 | 3254 ft | 174 kts | 68° |
| 2026-05-07 19:17 | 49.98053 | 8.33903 | 3009 ft | 173 kts | 68° |
| 2026-05-07 19:17 | 49.98478 | 8.35658 | 2780 ft | 173 kts | 68° |
| 2026-05-07 19:17 | 49.98899 | 8.37403 | 2546 ft | 172 kts | 68° |
| 2026-05-07 19:17 | 49.99319 | 8.39139 | 2310 ft | 171 kts | 69° |
| 2026-05-07 19:18 | 49.99734 | 8.40863 | 2077 ft | 169 kts | 69° |
| 2026-05-07 19:18 | 50.00136 | 8.42528 | 1857 ft | 158 kts | 69° |
| 2026-05-07 19:18 | 50.00495 | 8.44022 | 1651 ft | 142 kts | 69° |
| 2026-05-07 19:18 | 50.00830 | 8.45427 | 1444 ft | 135 kts | 69° |
| 2026-05-07 19:19 | 50.01160 | 8.46783 | 1221 ft | 136 kts | 69° |
| 2026-05-07 19:19 | 50.01492 | 8.48152 | 1050 ft | 135 kts | 69° |
| 2026-05-07 19:19 | 50.01822 | 8.49516 | 899 ft | 134 kts | 69° |
| 2026-05-07 19:19 | 50.02145 | 8.50870 | 740 ft | 133 kts | 69° |
| 2026-05-07 19:20 | 50.02465 | 8.52194 | 568 ft | 131 kts | 69° |
| 2026-05-07 19:20 | 50.02782 | 8.53514 | 378 ft | 130 kts | 70° |
| 2026-05-07 19:20 | 50.03072 | 8.54729 | 338 ft | 105 kts | 69° |
| 2026-05-07 19:20 | 50.03232 | 8.55384 | 346 ft | 27 kts | 69° |
| 2026-05-07 19:21 | 50.03308 | 8.55655 | 349 ft | 29 kts | 53° |
| 2026-05-07 19:21 | 50.03428 | 8.55848 | 350 ft | 20 kts | 39° |
| 2026-05-07 19:21 | 50.03465 | 8.55896 | 345 ft | 0 kts | 40° |
| 2026-05-07 19:21 | 50.03477 | 8.55912 | 354 ft | 5 kts | 40° |
| 2026-05-07 19:22 | 50.03500 | 8.55941 | 350 ft | 2 kts | 39° |
| 2026-05-07 19:22 | 50.03504 | 8.55947 | 347 ft | 0 kts | 39° |
| 2026-05-07 19:22 | 50.03513 | 8.55957 | 350 ft | 5 kts | 39° |
| 2026-05-07 19:23 | 50.03551 | 8.56006 | 356 ft | 9 kts | 39° |
| 2026-05-07 19:23 | 50.03611 | 8.56082 | 351 ft | 13 kts | 41° |
| 2026-05-07 19:23 | 50.03673 | 8.56231 | 357 ft | 20 kts | 70° |
| 2026-05-07 19:23 | 50.03731 | 8.56480 | 356 ft | 28 kts | 70° |
| 2026-05-07 19:24 | 50.03806 | 8.56782 | 354 ft | 30 kts | 69° |
| 2026-05-07 19:24 | 50.03877 | 8.57085 | 358 ft | 29 kts | 69° |
| 2026-05-07 19:24 | 50.03945 | 8.57363 | 365 ft | 27 kts | 69° |
| 2026-05-07 19:24 | 50.04011 | 8.57635 | 371 ft | 25 kts | 71° |
| 2026-05-07 19:25 | 50.04074 | 8.57811 | 366 ft | 15 kts | 21° |
| 2026-05-07 19:25 | 50.04176 | 8.57781 | 366 ft | 18 kts | 341° |
| 2026-05-07 19:25 | 50.04308 | 8.57703 | 363 ft | 21 kts | 339° |
| 2026-05-07 19:25 | 50.04383 | 8.57659 | 366 ft | 3 kts | 339° |
| 2026-05-07 19:27 | 50.04394 | 8.57653 | 366 ft | 4 kts | 342° |
| 2026-05-07 19:28 | 50.04436 | 8.57656 | 365 ft | 9 kts | 22° |
| 2026-05-07 19:28 | 50.04477 | 8.57747 | 366 ft | 12 kts | 70° |
| 2026-05-07 19:28 | 50.04509 | 8.57888 | 366 ft | 15 kts | 70° |
| 2026-05-07 19:28 | 50.04522 | 8.57946 | 367 ft | 4 kts | 70° |
| 2026-05-07 19:29 | 50.04545 | 8.58013 | 363 ft | 9 kts | 46° |
| 2026-05-07 19:29 | 50.04625 | 8.58009 | 360 ft | 16 kts | 339° |
| 2026-05-07 19:29 | 50.04750 | 8.57934 | 358 ft | 22 kts | 342° |
| 2026-05-07 19:29 | 50.04855 | 8.57819 | 360 ft | 19 kts | 291° |
| 2026-05-07 19:30 | 50.04911 | 8.57613 | 358 ft | 22 kts | 296° |
| 2026-05-07 19:30 | 50.04957 | 8.57456 | 360 ft | 6 kts | 294° |
| 2026-05-07 19:30 | 50.04978 | 8.57416 | 360 ft | 4 kts | 324° |
| 2026-05-07 19:30 | 50.04999 | 8.57401 | 359 ft | 2 kts | 338° |
| 2026-05-07 19:31 | 50.05006 | 8.57407 | 356 ft | 3 kts | 32° |
| 2026-05-07 19:31 | 50.05006 | 8.57421 | 356 ft | 0 kts | 88° |
| 2026-05-07 19:31 | 50.05006 | 8.57427 | 362 ft | 0 kts | 88° |